Time;durP1;ratioP1;P1;durP2;ratioP2;P2;SDS_P1;SDS_P2;PMS_P1;PMS_P2;Temp;Humidity;BMP_temperature;BMP_pressure;BME280_temperature;BME280_humidity;BME280_pressure;Samples;Min_cycle;Max_cycle;Signal;HPM_P1;HPM_P2
2022/03/14 05:15:38;;;;;;;;;;;;;;;6.69;79.66;97757.38;4267985;27;10396;-63
2022/03/14 05:17:40;;;;;;;;;;;;;;;6.86;78.97;97750.50;4263992;27;5640;-62
2022/03/14 05:19:42;;;;;;;;;;;;;;;6.76;79.95;97754.97;4249325;27;5665;-62
2022/03/14 05:21:43;;;;;;;;;;;;;;;6.91;78.91;97757.97;4247243;27;5657;-62
2022/03/14 05:23:45;;;;;;;;;;;;;;;7.04;78.45;97755.00;4246710;27;5657;-62
2022/03/14 05:25:47;;;;;;;;;;;;;;;7.10;78.20;97757.03;4246628;27;5736;-62
2022/03/14 05:27:49;;;;;;;;;;;;;;;6.83;79.80;97756.06;4248064;27;5657;-62
2022/03/14 05:29:51;;;;;;;;;;;;;;;6.67;80.66;97759.31;4245959;27;5869;-63
2022/03/14 05:31:53;;;;;;;;;;;;;;;6.94;79.20;97757.69;4254379;27;6308;-63
2022/03/14 05:33:55;;;;;;;;;;;;;;;6.96;78.70;97761.81;4259266;27;5709;-62
2022/03/14 05:35:57;;;;;;;;;;;;;;;6.91;78.70;97761.44;4238064;27;5745;-63
2022/03/14 05:37:59;;;;;;;;;;;;;;;7.00;78.64;97767.59;4243020;27;5665;-63
2022/03/14 05:40:01;;;;;;;;;;;;;;;6.90;79.02;97775.53;4242474;27;5894;-63
2022/03/14 05:42:03;;;;;;;;;;;;;;;6.81;79.72;97765.91;4245698;27;7237;-63
2022/03/14 05:44:05;;;;;;;;;;;;;;;6.73;79.81;97771.06;4242951;27;5746;-63
2022/03/14 05:46:07;;;;;;;;;;;;;;;6.75;79.39;97768.28;4236998;27;5669;-63
2022/03/14 05:48:09;;;;;;;;;;;;;;;6.75;79.18;97773.53;4250460;27;5643;-62
2022/03/14 05:50:11;;;;;;;;;;;;;;;6.79;78.65;97770.44;4248227;27;5661;-63
2022/03/14 05:52:14;;;;;;;;;;;;;;;6.83;78.76;97782.34;4247524;27;5660;-63
2022/03/14 05:54:15;;;;;;;;;;;;;;;6.90;78.13;97782.56;4243236;27;5665;-64
2022/03/14 05:56:17;;;;;;;;;;;;;;;6.93;78.04;97772.63;4237339;27;5751;-63
2022/03/14 05:58:19;;;;;;;;;;;;;;;6.97;77.87;97776.59;4241831;27;5665;-63
2022/03/14 06:00:23;;;;;;;;;;;;;;;7.03;77.61;97777.84;4230847;27;5855;-63
2022/03/14 06:02:26;;;;;;;;;;;;;;;7.06;77.25;97781.97;4232421;27;5827;-63
2022/03/14 06:04:28;;;;;;;;;;;;;;;7.03;77.76;97780.47;4235457;27;5980;-63
2022/03/14 06:06:30;;;;;;;;;;;;;;;7.04;77.47;97784.75;4241212;27;7068;-63
2022/03/14 06:08:31;;;;;;;;;;;;;;;7.04;77.21;97797.06;4238690;27;5657;-63
2022/03/14 06:10:33;;;;;;;;;;;;;;;7.03;77.58;97804.13;4233757;27;5756;-63
2022/03/14 06:12:35;;;;;;;;;;;;;;;7.07;77.44;97802.03;4245273;27;5712;-62
2022/03/14 06:14:37;;;;;;;;;;;;;;;7.07;77.39;97812.53;4244350;27;5217;-64
2022/03/14 06:16:39;;;;;;;;;;;;;;;7.08;77.50;97811.56;4234897;27;8439;-63
2022/03/14 06:18:40;;;;;;;;;;;;;;;7.09;77.21;97818.47;4228230;28;5747;-63
2022/03/14 06:20:42;;;;;;;;;;;;;;;7.12;77.06;97810.28;4231898;28;5699;-62
2022/03/14 06:22:48;;;;;;;;;;;;;;;7.14;77.02;97805.72;4234762;28;5728;-63
2022/03/14 06:24:51;;;;;;;;;;;;;;;7.16;77.14;97819.56;4235246;28;5664;-62
2022/03/14 06:26:52;;;;;;;;;;;;;;;7.19;77.00;97816.63;4235282;28;5776;-62
2022/03/14 06:28:54;;;;;;;;;;;;;;;7.15;77.02;97824.00;4232696;28;5645;-62
2022/03/14 06:30:56;;;;;;;;;;;;;;;7.13;77.38;97831.16;4220739;28;5733;-62
2022/03/14 06:32:58;;;;;;;;;;;;;;;7.13;77.54;97835.59;4227761;28;6578;-62
2022/03/14 06:35:00;;;;;;;;;;;;;;;7.11;77.79;97837.56;4231795;28;5724;-62
2022/03/14 06:37:02;;;;;;;;;;;;;;;7.01;78.27;97846.31;4222368;27;5665;-62
2022/03/14 06:39:03;;;;;;;;;;;;;;;7.01;78.48;97838.41;4224219;27;5751;-64
2022/03/14 06:41:11;;;;;;;;;;;;;;;6.98;79.20;97841.34;4230677;28;5815;-63
2022/03/14 06:43:13;;;;;;;;;;;;;;;6.96;79.32;97845.94;4227235;28;5664;-63
2022/03/14 06:45:20;;;;;;;;;;;;;;;6.87;79.86;97846.78;4227628;28;5876;-63
2022/03/14 06:47:22;;;;;;;;;;;;;;;6.84;80.23;97841.84;4230042;28;5684;-64
2022/03/14 06:49:24;;;;;;;;;;;;;;;6.81;79.74;97854.44;4233143;27;5735;-61
2022/03/14 06:51:26;;;;;;;;;;;;;;;6.85;79.38;97848.75;4228096;27;5775;-62
2022/03/14 06:53:28;;;;;;;;;;;;;;;6.84;79.26;97852.34;4231000;27;5657;-62
2022/03/14 06:55:30;;;;;;;;;;;;;;;6.83;79.33;97845.44;4227073;27;7154;-62
2022/03/14 06:57:31;;;;;;;;;;;;;;;6.79;79.39;97851.94;4227615;28;5724;-62
2022/03/14 06:59:34;;;;;;;;;;;;;;;6.79;80.61;97854.56;4229432;28;5664;-62
2022/03/14 07:01:38;;;;;;;;;;;;;;;6.75;80.18;97858.44;4230240;28;6338;-64
2022/03/14 07:03:40;;;;;;;;;;;;;;;6.89;79.67;97859.78;4229982;28;5660;-61
2022/03/14 07:05:46;;;;;;;;;;;;;;;6.84;79.54;97857.59;4227085;28;5717;-68
2022/03/14 07:07:48;;;;;;;;;;;;;;;6.85;79.64;97864.50;4230764;28;5764;-68
2022/03/14 07:09:49;;;;;;;;;;;;;;;6.88;79.67;97860.75;4225076;28;5657;-62
2022/03/14 07:11:54;;;;;;;;;;;;;;;7.03;78.85;97869.03;4220739;27;5792;-64
2022/03/14 07:13:55;;;;;;;;;;;;;;;7.10;78.80;97867.47;4225422;28;5645;-62
2022/03/14 07:15:57;;;;;;;;;;;;;;;7.18;78.44;97864.94;4224823;27;5718;-62
2022/03/14 07:17:59;;;;;;;;;;;;;;;7.21;78.31;97872.53;4234735;27;5745;-62
2022/03/14 07:20:02;;;;;;;;;;;;;;;7.16;78.57;97865.09;4245815;27;5800;-62
2022/03/14 07:22:03;;;;;;;;;;;;;;;7.08;79.78;97870.25;4223728;27;5665;-62
2022/03/14 07:24:06;;;;;;;;;;;;;;;6.78;81.33;97879.19;4227836;27;5734;-62
2022/03/14 07:26:07;;;;;;;;;;;;;;;6.96;80.04;97871.41;4232280;27;5732;-63
2022/03/14 07:28:09;;;;;;;;;;;;;;;7.04;79.83;97879.41;4234010;27;5912;-62
2022/03/14 07:30:12;;;;;;;;;;;;;;;7.06;79.62;97881.88;4249842;27;5628;-62
2022/03/14 07:32:14;;;;;;;;;;;;;;;7.02;79.66;97876.06;4230064;27;5765;-62
2022/03/14 07:34:16;;;;;;;;;;;;;;;7.10;79.25;97884.06;4236142;27;5768;-62
2022/03/14 07:36:18;;;;;;;;;;;;;;;7.16;79.07;97887.94;4236800;27;6454;-63
2022/03/14 07:38:20;;;;;;;;;;;;;;;7.20;78.96;97892.75;4238764;27;5808;-65
2022/03/14 07:40:23;;;;;;;;;;;;;;;7.27;78.69;97895.63;4228664;27;6621;-65
2022/03/14 07:42:26;;;;;;;;;;;;;;;7.19;78.78;97892.88;4229395;27;5923;-65
2022/03/14 07:44:27;;;;;;;;;;;;;;;6.94;81.03;97899.63;4228354;27;5832;-66
2022/03/14 07:46:29;;;;;;;;;;;;;;;6.90;80.41;97893.81;4221999;27;6383;-65
2022/03/14 07:48:31;;;;;;;;;;;;;;;7.19;78.90;97890.25;4227680;27;5682;-66
2022/03/14 07:50:33;;;;;;;;;;;;;;;7.06;79.44;97903.75;4231209;27;5699;-66
2022/03/14 07:52:36;;;;;;;;;;;;;;;7.26;79.01;97899.25;4232038;27;5803;-66
2022/03/14 07:54:38;;;;;;;;;;;;;;;7.32;78.66;97893.38;4229459;27;5656;-66
2022/03/14 07:56:42;;;;;;;;;;;;;;;7.24;78.83;97901.16;4230865;27;5861;-65
2022/03/14 07:58:44;;;;;;;;;;;;;;;7.28;78.89;97906.00;4224262;27;5797;-66
2022/03/14 08:00:46;;;;;;;;;;;;;;;7.34;78.20;97901.94;4228388;27;5451;-66
2022/03/14 08:02:50;;;;;;;;;;;;;;;7.35;77.99;97900.97;4241358;27;7717;-66
2022/03/14 08:04:52;;;;;;;;;;;;;;;7.32;77.87;97898.63;4236689;27;5647;-66
2022/03/14 08:06:53;;;;;;;;;;;;;;;7.28;78.71;97898.13;4239915;27;5731;-65
2022/03/14 08:08:57;;;;;;;;;;;;;;;7.41;77.82;97903.03;4243019;27;5117;-65
2022/03/14 08:11:01;;;;;;;;;;;;;;;7.40;78.87;97909.28;4227958;27;5653;-66
2022/03/14 08:13:07;;;;;;;;;;;;;;;7.44;78.00;97909.81;4231992;27;5738;-65
2022/03/14 08:15:09;;;;;;;;;;;;;;;7.40;78.20;97906.66;4242297;27;5811;-66
2022/03/14 08:17:12;;;;;;;;;;;;;;;7.19;79.50;97911.31;4233332;27;5681;-66
2022/03/14 08:19:13;;;;;;;;;;;;;;;7.28;79.25;97923.59;4230671;27;5895;-65
2022/03/14 08:21:15;;;;;;;;;;;;;;;7.39;78.93;97912.88;4226780;27;6678;-65
2022/03/14 08:23:17;;;;;;;;;;;;;;;7.37;79.50;97917.47;4226213;27;7762;-65
2022/03/14 08:25:20;;;;;;;;;;;;;;;7.46;78.95;97923.63;4222397;27;5747;-62
2022/03/14 08:27:22;;;;;;;;;;;;;;;7.39;78.93;97917.31;4231123;27;5100;-62
2022/03/14 08:29:24;;;;;;;;;;;;;;;7.54;78.33;97908.78;4226979;27;6201;-61
2022/03/14 08:31:26;;;;;;;;;;;;;;;7.67;77.77;97918.13;4233798;27;5739;-66
2022/03/14 08:33:29;;;;;;;;;;;;;;;7.62;77.69;97915.13;4225092;27;5732;-66
2022/03/14 08:35:33;;;;;;;;;;;;;;;7.69;77.68;97918.81;4237330;27;5504;-64
2022/03/14 08:37:37;;;;;;;;;;;;;;;7.65;78.14;97922.72;4225521;27;7679;-63
2022/03/14 08:39:38;;;;;;;;;;;;;;;7.35;78.60;97924.66;4226713;27;5636;-65
2022/03/14 08:41:40;;;;;;;;;;;;;;;7.40;78.99;97926.84;4228904;27;5769;-62
2022/03/14 08:43:43;;;;;;;;;;;;;;;7.57;78.25;97929.53;4227888;27;5661;-61
2022/03/14 08:45:45;;;;;;;;;;;;;;;7.71;77.28;97930.88;4225763;27;5705;-60
2022/03/14 08:47:47;;;;;;;;;;;;;;;7.76;76.75;97933.03;4226987;27;5810;-63
2022/03/14 08:49:48;;;;;;;;;;;;;;;7.75;76.56;97934.03;4228878;27;5657;-62
2022/03/14 08:51:50;;;;;;;;;;;;;;;7.82;76.42;97940.38;4227407;27;5655;-63
2022/03/14 08:53:52;;;;;;;;;;;;;;;7.81;76.45;97939.53;4221961;27;5660;-64
2022/03/14 08:55:55;;;;;;;;;;;;;;;7.93;76.05;97936.66;4228267;27;5673;-65
2022/03/14 08:58:01;;;;;;;;;;;;;;;7.97;75.88;97933.59;4221945;27;5819;-62
2022/03/14 09:00:04;;;;;;;;;;;;;;;8.02;75.83;97933.97;4225740;27;6462;-64
2022/03/14 09:02:09;;;;;;;;;;;;;;;8.01;76.06;97937.59;4227266;27;5774;-63
2022/03/14 09:04:16;;;;;;;;;;;;;;;7.99;76.34;97933.44;4229513;27;6476;-63
2022/03/14 09:06:18;;;;;;;;;;;;;;;7.93;76.55;97948.06;4223076;27;5749;-62
2022/03/14 09:08:20;;;;;;;;;;;;;;;8.08;76.00;97949.19;4227984;28;6324;-62
2022/03/14 09:10:22;;;;;;;;;;;;;;;8.17;75.37;97944.84;4222586;28;5732;-59
2022/03/14 09:12:24;;;;;;;;;;;;;;;8.21;76.16;97950.63;4229006;28;5662;-62
2022/03/14 09:14:25;;;;;;;;;;;;;;;8.24;75.50;97952.94;4218648;27;5898;-63
2022/03/14 09:16:28;;;;;;;;;;;;;;;8.28;74.67;97954.31;4232485;27;5711;-62
2022/03/14 09:18:31;;;;;;;;;;;;;;;8.27;74.88;97947.38;4229919;27;5670;-63
2022/03/14 09:20:34;;;;;;;;;;;;;;;8.32;75.38;97955.69;4229953;27;5655;-60
2022/03/14 09:22:37;;;;;;;;;;;;;;;8.35;75.49;97945.69;4230438;27;5656;-60
2022/03/14 09:24:40;;;;;;;;;;;;;;;8.24;76.25;97952.94;4235933;27;5744;-59
2022/03/14 09:26:42;;;;;;;;;;;;;;;8.34;75.47;97949.31;4220975;27;5837;-64
2022/03/14 09:28:44;;;;;;;;;;;;;;;8.40;74.63;97945.25;4230553;27;5663;-62
2022/03/14 09:30:47;;;;;;;;;;;;;;;8.44;75.01;97951.84;4238233;27;5736;-63
2022/03/14 09:32:49;;;;;;;;;;;;;;;8.55;73.46;97946.34;4227907;27;6493;-63
2022/03/14 09:34:51;;;;;;;;;;;;;;;8.55;72.57;97956.91;4230089;27;5681;-61
2022/03/14 09:36:55;;;;;;;;;;;;;;;8.62;72.83;97951.84;4226957;27;5735;-63
2022/03/14 09:38:57;;;;;;;;;;;;;;;8.58;72.36;97951.31;4241518;27;5691;-61
2022/03/14 09:41:03;;;;;;;;;;;;;;;8.64;72.33;97950.72;4229475;27;5756;-61
2022/03/14 09:43:06;;;;;;;;;;;;;;;8.58;72.69;97946.03;4225106;27;5653;-61
2022/03/14 09:45:11;;;;;;;;;;;;;;;8.74;72.06;97943.56;4227493;27;5752;-61
2022/03/14 09:47:13;;;;;;;;;;;;;;;8.75;70.29;97947.84;4230804;27;5658;-61
2022/03/14 09:49:17;;;;;;;;;;;;;;;8.76;70.73;97951.31;4229182;27;5818;-61
2022/03/14 09:51:19;;;;;;;;;;;;;;;8.89;70.53;97953.53;4223710;27;5696;-61
2022/03/14 09:53:20;;;;;;;;;;;;;;;9.01;69.94;97963.69;4227073;27;5735;-59
2022/03/14 09:55:22;;;;;;;;;;;;;;;9.01;69.65;97968.13;4234333;27;5652;-58
2022/03/14 09:57:24;;;;;;;;;;;;;;;9.02;69.35;97970.59;4233787;27;5665;-61
2022/03/14 09:59:28;;;;;;;;;;;;;;;8.94;68.11;97967.06;4239686;27;5640;-60
2022/03/14 10:01:30;;;;;;;;;;;;;;;8.98;68.63;97974.53;4227008;27;5784;-61
2022/03/14 10:03:33;;;;;;;;;;;;;;;8.93;68.45;97968.88;4240136;27;5667;-62
2022/03/14 10:05:35;;;;;;;;;;;;;;;8.98;69.23;97968.44;4227010;27;6459;-61
2022/03/14 10:07:40;;;;;;;;;;;;;;;8.82;69.83;97966.50;4228750;27;5970;-61
2022/03/14 10:09:43;;;;;;;;;;;;;;;8.69;71.17;97968.72;4238294;27;5730;-62
2022/03/14 10:11:44;;;;;;;;;;;;;;;8.49;71.55;97972.47;4232847;27;5755;-61
2022/03/14 10:13:46;;;;;;;;;;;;;;;8.87;71.49;97968.69;4232623;27;5890;-65
2022/03/14 10:15:48;;;;;;;;;;;;;;;8.96;70.30;97975.69;4223276;27;5780;-61
2022/03/14 10:17:51;;;;;;;;;;;;;;;9.10;71.09;97976.94;4225014;27;5735;-60
2022/03/14 10:20:01;;;;;;;;;;;;;;;9.06;71.39;97981.69;4230302;27;6330;-67
2022/03/14 10:22:14;;;;;;;;;;;;;;;9.12;70.63;97974.97;4231687;27;5755;-61
2022/03/14 10:24:21;;;;;;;;;;;;;;;9.05;70.14;97972.09;4227302;27;5833;-61
2022/03/14 10:26:25;;;;;;;;;;;;;;;8.98;70.30;97964.00;4230535;27;5648;-61
2022/03/14 10:28:30;;;;;;;;;;;;;;;9.05;70.42;97974.75;4235800;27;5754;-61
2022/03/14 10:30:52;;;;;;;;;;;;;;;9.17;69.81;97962.94;4226227;27;5751;-60
2022/03/14 10:33:11;;;;;;;;;;;;;;;8.79;69.65;97958.06;4234740;27;5916;-64
2022/03/14 10:35:16;;;;;;;;;;;;;;;8.97;70.52;97954.44;4223883;27;5747;-64
2022/03/14 10:37:18;;;;;;;;;;;;;;;8.90;70.52;97953.38;4230887;27;5755;-64
2022/03/14 10:39:31;;;;;;;;;;;;;;;9.08;70.38;97948.06;4220911;27;5776;-63
2022/03/14 10:41:32;;;;;;;;;;;;;;;9.15;71.79;97954.34;4228615;27;6546;-63
2022/03/14 10:43:52;;;;;;;;;;;;;;;9.08;68.35;97948.06;4227013;27;6437;-63
2022/03/14 10:45:56;;;;;;;;;;;;;;;9.24;69.88;97952.59;4226900;27;5828;-64
2022/03/14 10:47:58;;;;;;;;;;;;;;;9.18;70.00;97951.44;4239374;27;5800;-58
2022/03/14 10:50:00;;;;;;;;;;;;;;;9.11;69.89;97953.03;4237941;27;5782;-61
2022/03/14 10:52:07;;;;;;;;;;;;;;;9.27;70.77;97955.75;4240610;27;5760;-61
2022/03/14 10:54:09;;;;;;;;;;;;;;;9.34;69.79;97953.31;4233369;27;5760;-62
2022/03/14 10:56:13;;;;;;;;;;;;;;;9.32;69.66;97956.13;4224871;27;5811;-61
2022/03/14 10:58:25;;;;;;;;;;;;;;;9.18;69.65;97954.06;4226875;27;5827;-61
2022/03/14 11:00:47;;;;;;;;;;;;;;;9.14;70.03;97955.34;4226616;27;5799;-61
2022/03/14 11:03:03;;;;;;;;;;;;;;;8.67;71.61;97950.41;4227205;27;5837;-61
2022/03/14 11:05:09;;;;;;;;;;;;;;;8.97;70.92;97953.59;4237215;27;5764;-61
2022/03/14 11:07:11;;;;;;;;;;;;;;;8.96;69.82;97954.59;4225836;27;5785;-61
2022/03/14 11:09:14;;;;;;;;;;;;;;;9.05;69.12;97953.63;4233747;27;5835;-61
2022/03/14 11:11:21;;;;;;;;;;;;;;;9.21;69.25;97948.47;4222182;27;6426;-61
2022/03/14 11:13:24;;;;;;;;;;;;;;;9.14;69.60;97952.72;4223137;27;5759;-62
2022/03/14 11:15:35;;;;;;;;;;;;;;;9.05;69.09;97943.91;4218849;27;5803;-63
2022/03/14 11:17:37;;;;;;;;;;;;;;;8.87;69.24;97947.59;4245586;27;5804;-60
2022/03/14 11:19:59;;;;;;;;;;;;;;;8.70;69.72;97939.53;4223306;27;5743;-62
2022/03/14 11:22:01;;;;;;;;;;;;;;;8.93;69.44;97928.50;4230287;27;5722;-62
2022/03/14 11:24:04;;;;;;;;;;;;;;;9.31;68.83;97928.09;4225130;27;5848;-62
2022/03/14 11:26:09;;;;;;;;;;;;;;;9.53;67.87;97936.44;4223178;27;5679;-63
2022/03/14 11:28:16;;;;;;;;;;;;;;;9.31;68.55;97951.84;4224803;27;5736;-63
2022/03/14 11:30:19;;;;;;;;;;;;;;;9.46;68.48;97938.03;4235457;27;5873;-62
2022/03/14 11:32:21;;;;;;;;;;;;;;;9.35;69.21;97941.78;4233838;27;5806;-62
2022/03/14 11:34:36;;;;;;;;;;;;;;;9.51;68.62;97939.22;4228818;27;5661;-63
2022/03/14 11:36:38;;;;;;;;;;;;;;;9.63;67.76;97943.25;4230867;27;5744;-63
2022/03/14 11:38:40;;;;;;;;;;;;;;;9.56;67.56;97951.94;4226746;27;5653;-63
2022/03/14 11:40:42;;;;;;;;;;;;;;;9.52;67.32;97946.16;4227357;27;5777;-63
2022/03/14 11:42:44;;;;;;;;;;;;;;;9.53;67.11;97952.28;4227319;27;5678;-63
2022/03/14 11:44:47;;;;;;;;;;;;;;;9.70;67.09;97940.78;4228321;27;5881;-67
2022/03/14 11:46:50;;;;;;;;;;;;;;;9.73;66.85;97932.53;4228379;27;5666;-71
2022/03/14 11:49:08;;;;;;;;;;;;;;;9.71;67.27;97929.22;4231419;27;6464;-68
2022/03/14 11:51:11;;;;;;;;;;;;;;;9.88;66.71;97925.66;4231434;27;5658;-66
2022/03/14 11:53:26;;;;;;;;;;;;;;;9.90;66.34;97931.59;4223372;28;5645;-66
2022/03/14 11:55:28;;;;;;;;;;;;;;;10.00;66.02;97923.53;4223057;28;5715;-66
2022/03/14 11:57:41;;;;;;;;;;;;;;;9.98;65.95;97927.34;4230869;28;5672;-68
2022/03/14 11:59:43;;;;;;;;;;;;;;;10.02;65.49;97920.72;4227752;28;5705;-63
2022/03/14 12:01:48;;;;;;;;;;;;;;;9.98;65.32;97917.59;4229612;28;5645;-66
2022/03/14 12:03:58;;;;;;;;;;;;;;;10.06;65.53;97917.59;4229702;28;5698;-70
2022/03/14 12:05:59;;;;;;;;;;;;;;;10.14;65.08;97924.72;4221271;28;5666;-68
2022/03/14 12:08:10;;;;;;;;;;;;;;;10.08;62.97;97917.44;4227868;28;5653;-65
2022/03/14 12:10:33;;;;;;;;;;;;;;;10.03;63.42;97911.81;4222485;28;5714;-70
2022/03/14 12:12:35;;;;;;;;;;;;;;;10.02;63.96;97912.81;4216903;28;6020;-63
2022/03/14 12:14:44;;;;;;;;;;;;;;;10.02;63.80;97920.72;4223349;28;5805;-68
2022/03/14 12:16:46;;;;;;;;;;;;;;;10.05;63.45;97920.41;4228218;27;5628;-65
2022/03/14 12:18:48;;;;;;;;;;;;;;;9.96;65.33;97913.44;4227383;28;5817;-68
2022/03/14 12:20:54;;;;;;;;;;;;;;;9.99;63.31;97924.53;4220799;27;5667;-69
2022/03/14 12:22:55;;;;;;;;;;;;;;;10.01;64.41;97913.81;4223022;28;5665;-65
2022/03/14 12:24:58;;;;;;;;;;;;;;;9.75;64.94;97913.91;4223203;28;5813;-66
2022/03/14 12:27:00;;;;;;;;;;;;;;;9.72;65.74;97911.56;4226480;28;5652;-68
2022/03/14 12:29:33;;;;;;;;;;;;;;;9.88;65.37;97904.53;4221658;28;5733;-69
2022/03/14 12:31:35;;;;;;;;;;;;;;;10.07;65.18;97905.22;4221384;28;5775;-69
2022/03/14 12:33:39;;;;;;;;;;;;;;;10.12;63.74;97898.47;4226672;28;6369;-69
2022/03/14 12:35:41;;;;;;;;;;;;;;;10.10;64.45;97900.44;4224204;27;5676;-65
2022/03/14 12:37:52;;;;;;;;;;;;;;;10.05;64.77;97896.63;4235491;27;5632;-71
2022/03/14 12:39:54;;;;;;;;;;;;;;;10.07;64.94;97897.28;4248715;27;5639;-60
2022/03/14 12:42:20;;;;;;;;;;;;;;;10.14;64.99;97885.91;4239903;27;5740;-65
2022/03/14 12:44:24;;;;;;;;;;;;;;;9.89;64.78;97879.78;4230588;27;5248;-60
2022/03/14 12:46:27;;;;;;;;;;;;;;;10.01;64.15;97888.22;4231277;27;7723;-68
2022/03/14 12:48:34;;;;;;;;;;;;;;;10.20;64.21;97887.09;4248295;27;5660;-66
2022/03/14 12:50:45;;;;;;;;;;;;;;;10.15;63.00;97884.09;4247224;27;5624;-66
2022/03/14 12:53:01;;;;;;;;;;;;;;;10.13;62.96;97880.78;4229560;27;5784;-70
2022/03/14 12:55:19;;;;;;;;;;;;;;;10.26;62.85;97881.16;4225287;27;5757;-66
2022/03/14 12:57:24;;;;;;;;;;;;;;;10.02;61.90;97875.81;4233565;27;5673;-68
2022/03/14 12:59:27;;;;;;;;;;;;;;;10.22;62.62;97874.56;4227614;27;5676;-67
2022/03/14 13:01:31;;;;;;;;;;;;;;;10.18;63.00;97867.91;4228037;27;5778;-67
2022/03/14 13:03:35;;;;;;;;;;;;;;;10.02;63.44;97862.63;4230777;27;5631;-73
2022/03/14 13:05:41;;;;;;;;;;;;;;;10.25;62.98;97861.00;4236529;27;5763;-73
2022/03/14 13:07:44;;;;;;;;;;;;;;;10.33;63.66;97857.56;4228428;27;5696;-72
2022/03/14 13:09:54;;;;;;;;;;;;;;;10.35;64.06;97863.50;4239771;27;5761;-72
2022/03/14 13:11:58;;;;;;;;;;;;;;;10.29;64.40;97854.38;4237114;27;5785;-72
2022/03/14 13:14:02;;;;;;;;;;;;;;;10.42;64.42;97856.56;4229761;27;5624;-69
2022/03/14 13:16:08;;;;;;;;;;;;;;;10.53;64.05;97852.72;4234800;27;5847;-69
2022/03/14 13:18:21;;;;;;;;;;;;;;;10.55;63.48;97854.22;4228772;27;5756;-66
2022/03/14 13:20:28;;;;;;;;;;;;;;;10.29;64.80;97849.09;4225953;27;5707;-68
2022/03/14 13:22:29;;;;;;;;;;;;;;;10.39;63.80;97843.66;4230379;27;5684;-69
2022/03/14 13:24:36;;;;;;;;;;;;;;;10.52;63.94;97832.56;4226776;27;6161;-66
2022/03/14 13:26:41;;;;;;;;;;;;;;;10.54;64.54;97831.44;4226615;27;5748;-66
2022/03/14 13:28:43;;;;;;;;;;;;;;;10.43;64.18;97829.13;4227572;27;5673;-68
2022/03/14 13:30:45;;;;;;;;;;;;;;;10.39;64.74;97833.91;4233517;27;5788;-65
2022/03/14 13:32:47;;;;;;;;;;;;;;;10.45;65.00;97827.16;4231554;27;5780;-70
2022/03/14 13:35:06;;;;;;;;;;;;;;;10.50;64.47;97820.34;4230184;27;5637;-68
2022/03/14 13:37:10;;;;;;;;;;;;;;;10.58;64.61;97821.34;4232377;27;5810;-71
2022/03/14 13:39:23;;;;;;;;;;;;;;;10.72;64.55;97813.53;4229118;27;5906;-67
2022/03/14 13:41:29;;;;;;;;;;;;;;;10.80;63.92;97815.34;4225717;27;5776;-65
2022/03/14 13:43:31;;;;;;;;;;;;;;;10.82;64.13;97807.22;4223667;27;5720;-66
2022/03/14 13:45:33;;;;;;;;;;;;;;;10.88;63.75;97807.38;4224497;27;5783;-67
2022/03/14 13:47:35;;;;;;;;;;;;;;;10.82;63.52;97807.22;4222811;27;5723;-63
2022/03/14 13:49:36;;;;;;;;;;;;;;;10.98;63.38;97804.53;4219858;27;5823;-63
2022/03/14 13:51:40;;;;;;;;;;;;;;;11.04;62.90;97795.91;4223575;27;5937;-66
2022/03/14 13:53:45;;;;;;;;;;;;;;;11.11;63.08;97796.88;4225158;27;5788;-61
2022/03/14 13:55:57;;;;;;;;;;;;;;;11.11;63.01;97802.19;4228021;27;5753;-65
2022/03/14 13:58:00;;;;;;;;;;;;;;;11.16;63.32;97793.72;4228416;27;5917;-67
2022/03/14 14:00:13;;;;;;;;;;;;;;;11.19;62.77;97788.88;4227603;27;5776;-68
2022/03/14 14:02:21;;;;;;;;;;;;;;;11.21;62.42;97789.56;4229956;27;5652;-68
2022/03/14 14:04:26;;;;;;;;;;;;;;;11.24;62.06;97796.31;4229900;27;5641;-68
2022/03/14 14:06:43;;;;;;;;;;;;;;;11.26;61.37;97789.03;4228508;27;5803;-65
2022/03/14 14:08:45;;;;;;;;;;;;;;;11.29;60.89;97786.84;4228111;27;5753;-66
2022/03/14 14:10:46;;;;;;;;;;;;;;;11.37;61.76;97783.34;4230356;27;5912;-66
2022/03/14 14:13:02;;;;;;;;;;;;;;;11.45;61.62;97778.03;4230187;27;5804;-65
2022/03/14 14:15:07;;;;;;;;;;;;;;;11.43;59.66;97769.41;4225972;27;5661;-68
2022/03/14 14:17:40;;;;;;;;;;;;;;;11.46;60.55;97769.06;4225113;27;5879;-69
2022/03/14 14:20:14;;;;;;;;;;;;;;;11.50;56.15;97765.06;4233926;27;5657;-69
2022/03/14 14:22:47;;;;;;;;;;;;;;;11.46;57.64;97768.25;4250767;27;5635;-70
2022/03/14 14:24:50;;;;;;;;;;;;;;;11.57;60.03;97767.84;4223977;27;5838;-67
2022/03/14 14:26:52;;;;;;;;;;;;;;;11.64;60.70;97764.31;4230527;27;5672;-71
2022/03/14 14:28:54;;;;;;;;;;;;;;;11.69;60.58;97757.69;4235921;27;5673;-72
2022/03/14 14:30:57;;;;;;;;;;;;;;;11.71;60.68;97758.31;4234472;27;5748;-71
2022/03/14 14:32:59;;;;;;;;;;;;;;;11.53;60.66;97762.06;4240066;27;5694;-68
2022/03/14 14:35:01;;;;;;;;;;;;;;;11.38;62.45;97764.63;4238631;27;5636;-63
2022/03/14 14:37:03;;;;;;;;;;;;;;;11.54;62.06;97769.00;4236364;27;5685;-71
2022/03/14 14:39:05;;;;;;;;;;;;;;;11.55;61.70;97773.31;4239868;27;5631;-70
2022/03/14 14:41:09;;;;;;;;;;;;;;;11.61;61.88;97777.91;4235202;27;5615;-71
2022/03/14 14:43:12;;;;;;;;;;;;;;;11.62;62.03;97779.56;4228369;27;5649;-72
2022/03/14 14:45:15;;;;;;;;;;;;;;;11.56;62.07;97768.84;4237022;27;5649;-72
2022/03/14 14:47:17;;;;;;;;;;;;;;;11.36;62.86;97768.47;4242211;27;5744;-69
2022/03/14 14:49:19;;;;;;;;;;;;;;;11.35;62.50;97764.19;4238470;27;5707;-70
2022/03/14 14:51:21;;;;;;;;;;;;;;;11.19;62.19;97756.31;4241563;27;5632;-67
2022/03/14 14:53:25;;;;;;;;;;;;;;;11.38;62.15;97755.88;4248421;27;5116;-65
2022/03/14 14:55:27;;;;;;;;;;;;;;;11.35;62.03;97748.28;4242725;27;5799;-69
2022/03/14 14:57:29;;;;;;;;;;;;;;;11.31;61.20;97749.63;4250529;27;5735;-65
2022/03/14 14:59:31;;;;;;;;;;;;;;;11.31;60.52;97744.31;4225520;27;5849;-69
2022/03/14 15:01:33;;;;;;;;;;;;;;;11.33;60.84;97737.06;4227389;28;5653;-70
2022/03/14 15:03:36;;;;;;;;;;;;;;;11.38;60.52;97732.88;4228061;28;6562;-69
2022/03/14 15:05:39;;;;;;;;;;;;;;;11.35;60.59;97737.69;4227436;28;5909;-69
2022/03/14 15:07:41;;;;;;;;;;;;;;;11.29;61.61;97736.56;4222484;28;5845;-70
2022/03/14 15:09:43;;;;;;;;;;;;;;;11.23;61.77;97736.44;4230747;28;5657;-73
2022/03/14 15:11:46;;;;;;;;;;;;;;;11.29;62.28;97736.56;4228781;28;5641;-71
2022/03/14 15:13:48;;;;;;;;;;;;;;;11.25;62.81;97737.09;4228422;28;5780;-71
2022/03/14 15:15:50;;;;;;;;;;;;;;;11.28;62.78;97729.63;4227013;28;5670;-70
2022/03/14 15:17:52;;;;;;;;;;;;;;;11.30;62.50;97740.03;4224672;27;5657;-70
2022/03/14 15:19:54;;;;;;;;;;;;;;;11.33;62.48;97729.13;4227873;28;5654;-70
2022/03/14 15:21:57;;;;;;;;;;;;;;;11.31;61.95;97728.44;4231646;27;6501;-68
2022/03/14 15:24:00;;;;;;;;;;;;;;;11.20;62.26;97727.00;4234458;27;5819;-64
2022/03/14 15:26:03;;;;;;;;;;;;;;;11.14;62.99;97729.56;4227234;27;5779;-67
2022/03/14 15:28:05;;;;;;;;;;;;;;;10.90;64.20;97726.03;4234379;27;5715;-72
2022/03/14 15:30:10;;;;;;;;;;;;;;;11.04;64.60;97724.47;4233387;27;5898;-67
2022/03/14 15:32:17;;;;;;;;;;;;;;;11.08;63.92;97723.09;4227127;27;5760;-69
2022/03/14 15:34:19;;;;;;;;;;;;;;;11.02;63.96;97721.19;4224840;28;5130;-70
2022/03/14 15:36:23;;;;;;;;;;;;;;;11.05;64.06;97718.19;4229755;28;5740;-63
2022/03/14 15:38:25;;;;;;;;;;;;;;;11.02;64.84;97729.94;4228320;28;5752;-69
2022/03/14 15:40:32;;;;;;;;;;;;;;;11.09;65.22;97730.88;4224754;28;5771;-66
2022/03/14 15:42:37;;;;;;;;;;;;;;;11.17;64.39;97735.31;4221292;28;6146;-70
2022/03/14 15:44:41;;;;;;;;;;;;;;;11.19;64.16;97737.78;4224513;28;5861;-69
2022/03/14 15:46:43;;;;;;;;;;;;;;;11.06;63.34;97736.53;4224501;28;6477;-70
2022/03/14 15:48:50;;;;;;;;;;;;;;;11.14;61.96;97737.50;4229747;28;5953;-73
2022/03/14 15:50:52;;;;;;;;;;;;;;;11.14;62.18;97743.59;4224050;27;5946;-67
2022/03/14 15:52:56;;;;;;;;;;;;;;;11.14;62.99;97745.44;4225536;28;5768;-72
2022/03/14 15:55:01;;;;;;;;;;;;;;;10.96;64.56;97743.84;4222891;28;5737;-68
2022/03/14 15:57:04;;;;;;;;;;;;;;;11.06;65.23;97741.81;4217360;28;5787;-65
2022/03/14 15:59:19;;;;;;;;;;;;;;;11.01;66.44;97744.16;4217004;28;5753;-63
2022/03/14 16:01:21;;;;;;;;;;;;;;;10.96;65.88;97743.84;4222968;28;5744;-63
2022/03/14 16:03:24;;;;;;;;;;;;;;;10.91;65.49;97738.25;4213379;28;5909;-64
2022/03/14 16:05:27;;;;;;;;;;;;;;;10.97;65.07;97745.50;4213651;28;5764;-63
2022/03/14 16:07:29;;;;;;;;;;;;;;;10.96;64.87;97741.19;4214087;28;5816;-63
2022/03/14 16:09:31;;;;;;;;;;;;;;;10.98;64.54;97747.13;4231004;28;5744;-63
2022/03/14 16:11:33;;;;;;;;;;;;;;;11.04;64.29;97749.09;4230770;28;5844;-63
2022/03/14 16:13:41;;;;;;;;;;;;;;;11.00;61.87;97741.69;4223476;28;6504;-62
2022/03/14 16:15:44;;;;;;;;;;;;;;;11.07;62.82;97747.94;4214800;28;5761;-63